sensor_id;sensor_type;location;lat;lon;timestamp;P1;durP1;ratioP1;P2;durP2;ratioP2
32295;SDS011;18781;51.550;5.418;2023-04-21T00:01:00;38.92;;;23.00;;
32295;SDS011;18781;51.550;5.418;2023-04-21T00:03:26;34.30;;;23.15;;
32295;SDS011;18781;51.550;5.418;2023-04-21T00:05:56;30.55;;;22.88;;
32295;SDS011;18781;51.550;5.418;2023-04-21T00:08:22;32.33;;;23.73;;
32295;SDS011;18781;51.550;5.418;2023-04-21T00:10:48;35.05;;;23.45;;
32295;SDS011;18781;51.550;5.418;2023-04-21T00:13:14;31.95;;;22.92;;
32295;SDS011;18781;51.550;5.418;2023-04-21T00:15:40;32.53;;;22.45;;
32295;SDS011;18781;51.550;5.418;2023-04-21T00:18:05;32.13;;;23.80;;
32295;SDS011;18781;51.550;5.418;2023-04-21T00:20:31;32.65;;;23.65;;
32295;SDS011;18781;51.550;5.418;2023-04-21T00:22:57;35.03;;;23.15;;
32295;SDS011;18781;51.550;5.418;2023-04-21T00:25:24;34.50;;;23.27;;
32295;SDS011;18781;51.550;5.418;2023-04-21T00:27:50;36.45;;;24.45;;
32295;SDS011;18781;51.550;5.418;2023-04-21T00:30:15;42.25;;;22.92;;
32295;SDS011;18781;51.550;5.418;2023-04-21T00:32:41;36.20;;;23.42;;
32295;SDS011;18781;51.550;5.418;2023-04-21T00:35:07;33.67;;;23.63;;
32295;SDS011;18781;51.550;5.418;2023-04-21T00:37:33;34.33;;;24.08;;
32295;SDS011;18781;51.550;5.418;2023-04-21T00:39:59;33.78;;;23.90;;
32295;SDS011;18781;51.550;5.418;2023-04-21T00:42:25;35.85;;;24.13;;
32295;SDS011;18781;51.550;5.418;2023-04-21T00:44:52;31.77;;;23.80;;
32295;SDS011;18781;51.550;5.418;2023-04-21T00:47:18;32.30;;;23.25;;
32295;SDS011;18781;51.550;5.418;2023-04-21T00:49:44;33.78;;;24.20;;
32295;SDS011;18781;51.550;5.418;2023-04-21T00:52:10;35.13;;;23.88;;
32295;SDS011;18781;51.550;5.418;2023-04-21T00:54:35;36.47;;;24.50;;
32295;SDS011;18781;51.550;5.418;2023-04-21T00:57:01;40.03;;;24.90;;
32295;SDS011;18781;51.550;5.418;2023-04-21T00:59:28;34.90;;;23.38;;
32295;SDS011;18781;51.550;5.418;2023-04-21T01:01:56;35.10;;;24.37;;
32295;SDS011;18781;51.550;5.418;2023-04-21T01:04:22;36.95;;;24.67;;
32295;SDS011;18781;51.550;5.418;2023-04-21T01:06:47;36.45;;;24.67;;
32295;SDS011;18781;51.550;5.418;2023-04-21T01:09:13;32.67;;;22.98;;
32295;SDS011;18781;51.550;5.418;2023-04-21T01:11:39;35.17;;;23.65;;
32295;SDS011;18781;51.550;5.418;2023-04-21T01:14:05;35.90;;;23.50;;
32295;SDS011;18781;51.550;5.418;2023-04-21T01:16:31;35.45;;;23.42;;
32295;SDS011;18781;51.550;5.418;2023-04-21T01:18:57;34.33;;;23.70;;
32295;SDS011;18781;51.550;5.418;2023-04-21T01:21:23;38.60;;;25.20;;
32295;SDS011;18781;51.550;5.418;2023-04-21T01:23:50;36.38;;;23.60;;
32295;SDS011;18781;51.550;5.418;2023-04-21T01:26:17;36.90;;;24.45;;
32295;SDS011;18781;51.550;5.418;2023-04-21T01:28:47;35.78;;;24.23;;
32295;SDS011;18781;51.550;5.418;2023-04-21T01:31:13;36.33;;;24.95;;
32295;SDS011;18781;51.550;5.418;2023-04-21T01:33:40;35.00;;;23.60;;
32295;SDS011;18781;51.550;5.418;2023-04-21T01:36:06;35.40;;;22.80;;
32295;SDS011;18781;51.550;5.418;2023-04-21T01:38:32;35.25;;;23.08;;
32295;SDS011;18781;51.550;5.418;2023-04-21T01:40:58;36.95;;;23.00;;
32295;SDS011;18781;51.550;5.418;2023-04-21T01:43:24;38.25;;;24.00;;
32295;SDS011;18781;51.550;5.418;2023-04-21T01:45:50;35.08;;;23.02;;
32295;SDS011;18781;51.550;5.418;2023-04-21T01:48:16;36.83;;;23.27;;
32295;SDS011;18781;51.550;5.418;2023-04-21T01:50:42;37.58;;;24.25;;
32295;SDS011;18781;51.550;5.418;2023-04-21T01:53:07;38.30;;;24.67;;
32295;SDS011;18781;51.550;5.418;2023-04-21T01:55:33;37.30;;;23.98;;
32295;SDS011;18781;51.550;5.418;2023-04-21T01:57:59;38.67;;;24.92;;
32295;SDS011;18781;51.550;5.418;2023-04-21T02:00:25;37.85;;;24.42;;
32295;SDS011;18781;51.550;5.418;2023-04-21T02:02:50;37.05;;;24.38;;
32295;SDS011;18781;51.550;5.418;2023-04-21T02:05:16;39.25;;;24.42;;
32295;SDS011;18781;51.550;5.418;2023-04-21T02:07:42;40.05;;;24.75;;
32295;SDS011;18781;51.550;5.418;2023-04-21T02:10:08;35.80;;;24.27;;
32295;SDS011;18781;51.550;5.418;2023-04-21T02:12:34;35.15;;;23.75;;
32295;SDS011;18781;51.550;5.418;2023-04-21T02:15:00;35.35;;;23.60;;
32295;SDS011;18781;51.550;5.418;2023-04-21T02:17:25;39.63;;;23.92;;
32295;SDS011;18781;51.550;5.418;2023-04-21T02:19:51;40.10;;;25.38;;
32295;SDS011;18781;51.550;5.418;2023-04-21T02:22:16;37.30;;;23.73;;
32295;SDS011;18781;51.550;5.418;2023-04-21T02:24:42;37.08;;;24.27;;
32295;SDS011;18781;51.550;5.418;2023-04-21T02:27:07;40.72;;;25.13;;
32295;SDS011;18781;51.550;5.418;2023-04-21T02:29:33;39.20;;;24.58;;
32295;SDS011;18781;51.550;5.418;2023-04-21T02:31:59;40.28;;;25.63;;
32295;SDS011;18781;51.550;5.418;2023-04-21T02:34:25;41.33;;;25.85;;
32295;SDS011;18781;51.550;5.418;2023-04-21T02:36:50;39.75;;;24.98;;
32295;SDS011;18781;51.550;5.418;2023-04-21T02:39:16;43.60;;;26.75;;
32295;SDS011;18781;51.550;5.418;2023-04-21T02:41:41;44.70;;;27.02;;
32295;SDS011;18781;51.550;5.418;2023-04-21T02:44:07;49.38;;;27.55;;
32295;SDS011;18781;51.550;5.418;2023-04-21T02:46:32;40.85;;;26.35;;
32295;SDS011;18781;51.550;5.418;2023-04-21T02:48:58;47.53;;;29.38;;
32295;SDS011;18781;51.550;5.418;2023-04-21T02:51:24;44.38;;;28.15;;
32295;SDS011;18781;51.550;5.418;2023-04-21T02:53:49;48.05;;;27.92;;
32295;SDS011;18781;51.550;5.418;2023-04-21T02:56:15;45.13;;;27.77;;
32295;SDS011;18781;51.550;5.418;2023-04-21T02:58:40;48.65;;;30.13;;
32295;SDS011;18781;51.550;5.418;2023-04-21T03:01:07;49.42;;;28.75;;
32295;SDS011;18781;51.550;5.418;2023-04-21T03:03:32;49.30;;;29.00;;
32295;SDS011;18781;51.550;5.418;2023-04-21T03:06:02;47.85;;;28.80;;
32295;SDS011;18781;51.550;5.418;2023-04-21T03:08:29;53.25;;;30.83;;
32295;SDS011;18781;51.550;5.418;2023-04-21T03:10:55;48.80;;;29.80;;
32295;SDS011;18781;51.550;5.418;2023-04-21T03:13:21;53.55;;;31.00;;
32295;SDS011;18781;51.550;5.418;2023-04-21T03:15:48;49.28;;;28.95;;
32295;SDS011;18781;51.550;5.418;2023-04-21T03:18:14;59.90;;;30.33;;
32295;SDS011;18781;51.550;5.418;2023-04-21T03:20:40;52.03;;;31.38;;
32295;SDS011;18781;51.550;5.418;2023-04-21T03:23:05;55.70;;;30.55;;
32295;SDS011;18781;51.550;5.418;2023-04-21T03:25:31;54.92;;;30.70;;
32295;SDS011;18781;51.550;5.418;2023-04-21T03:27:56;50.67;;;31.52;;
32295;SDS011;18781;51.550;5.418;2023-04-21T03:30:22;55.42;;;30.75;;
32295;SDS011;18781;51.550;5.418;2023-04-21T03:32:50;48.97;;;30.23;;
32295;SDS011;18781;51.550;5.418;2023-04-21T03:35:16;54.25;;;31.95;;
32295;SDS011;18781;51.550;5.418;2023-04-21T03:37:41;52.95;;;31.90;;
32295;SDS011;18781;51.550;5.418;2023-04-21T03:40:07;53.08;;;30.92;;
32295;SDS011;18781;51.550;5.418;2023-04-21T03:42:36;52.67;;;31.30;;
32295;SDS011;18781;51.550;5.418;2023-04-21T03:45:02;52.15;;;31.83;;
32295;SDS011;18781;51.550;5.418;2023-04-21T03:47:29;54.08;;;32.03;;
32295;SDS011;18781;51.550;5.418;2023-04-21T03:49:55;52.97;;;32.35;;
32295;SDS011;18781;51.550;5.418;2023-04-21T03:52:21;55.50;;;32.55;;
32295;SDS011;18781;51.550;5.418;2023-04-21T03:54:47;54.72;;;34.25;;
32295;SDS011;18781;51.550;5.418;2023-04-21T03:57:12;53.78;;;32.13;;
32295;SDS011;18781;51.550;5.418;2023-04-21T03:59:38;56.42;;;32.55;;
32295;SDS011;18781;51.550;5.418;2023-04-21T04:02:04;57.22;;;34.22;;
32295;SDS011;18781;51.550;5.418;2023-04-21T04:04:29;55.53;;;32.55;;
32295;SDS011;18781;51.550;5.418;2023-04-21T04:06:55;52.80;;;32.40;;
32295;SDS011;18781;51.550;5.418;2023-04-21T04:09:27;53.50;;;32.50;;
32295;SDS011;18781;51.550;5.418;2023-04-21T04:11:53;57.60;;;34.25;;
32295;SDS011;18781;51.550;5.418;2023-04-21T04:14:18;54.45;;;33.30;;
32295;SDS011;18781;51.550;5.418;2023-04-21T04:16:44;53.97;;;33.47;;
32295;SDS011;18781;51.550;5.418;2023-04-21T04:19:11;61.28;;;35.15;;
32295;SDS011;18781;51.550;5.418;2023-04-21T04:21:37;54.92;;;32.67;;
32295;SDS011;18781;51.550;5.418;2023-04-21T04:24:02;55.72;;;34.70;;
32295;SDS011;18781;51.550;5.418;2023-04-21T04:28:58;57.40;;;33.83;;
32295;SDS011;18781;51.550;5.418;2023-04-21T04:31:26;57.80;;;34.83;;
32295;SDS011;18781;51.550;5.418;2023-04-21T04:33:55;59.50;;;34.58;;
32295;SDS011;18781;51.550;5.418;2023-04-21T04:36:21;64.32;;;36.13;;
32295;SDS011;18781;51.550;5.418;2023-04-21T04:38:48;61.40;;;36.25;;
32295;SDS011;18781;51.550;5.418;2023-04-21T04:41:13;63.95;;;36.83;;
32295;SDS011;18781;51.550;5.418;2023-04-21T04:43:40;59.30;;;35.22;;
32295;SDS011;18781;51.550;5.418;2023-04-21T04:46:07;62.70;;;36.13;;
32295;SDS011;18781;51.550;5.418;2023-04-21T04:48:36;63.65;;;37.00;;
32295;SDS011;18781;51.550;5.418;2023-04-21T04:51:02;63.28;;;37.35;;
32295;SDS011;18781;51.550;5.418;2023-04-21T04:53:29;64.35;;;36.97;;
32295;SDS011;18781;51.550;5.418;2023-04-21T04:55:54;61.20;;;35.42;;
32295;SDS011;18781;51.550;5.418;2023-04-21T04:58:22;65.68;;;36.65;;
32295;SDS011;18781;51.550;5.418;2023-04-21T05:00:48;64.05;;;37.85;;
32295;SDS011;18781;51.550;5.418;2023-04-21T05:03:14;62.50;;;37.03;;
32295;SDS011;18781;51.550;5.418;2023-04-21T05:05:40;66.20;;;38.20;;
32295;SDS011;18781;51.550;5.418;2023-04-21T05:08:05;68.80;;;39.40;;
32295;SDS011;18781;51.550;5.418;2023-04-21T05:10:31;66.43;;;39.53;;
32295;SDS011;18781;51.550;5.418;2023-04-21T05:12:56;70.13;;;37.75;;
32295;SDS011;18781;51.550;5.418;2023-04-21T05:15:22;66.43;;;38.97;;
32295;SDS011;18781;51.550;5.418;2023-04-21T05:17:47;65.68;;;38.78;;
32295;SDS011;18781;51.550;5.418;2023-04-21T05:20:13;69.40;;;40.15;;
32295;SDS011;18781;51.550;5.418;2023-04-21T05:22:39;66.20;;;39.83;;
32295;SDS011;18781;51.550;5.418;2023-04-21T05:25:05;74.30;;;41.00;;
32295;SDS011;18781;51.550;5.418;2023-04-21T05:27:31;70.45;;;40.40;;
32295;SDS011;18781;51.550;5.418;2023-04-21T05:29:58;75.03;;;42.50;;
32295;SDS011;18781;51.550;5.418;2023-04-21T05:32:24;76.55;;;41.72;;
32295;SDS011;18781;51.550;5.418;2023-04-21T05:34:50;77.88;;;43.03;;
32295;SDS011;18781;51.550;5.418;2023-04-21T05:37:15;72.13;;;42.08;;
32295;SDS011;18781;51.550;5.418;2023-04-21T05:39:41;74.00;;;40.95;;
32295;SDS011;18781;51.550;5.418;2023-04-21T05:42:08;71.82;;;42.33;;
32295;SDS011;18781;51.550;5.418;2023-04-21T05:44:35;72.75;;;42.40;;
32295;SDS011;18781;51.550;5.418;2023-04-21T05:47:01;73.80;;;43.10;;
32295;SDS011;18781;51.550;5.418;2023-04-21T05:49:28;72.63;;;42.88;;
32295;SDS011;18781;51.550;5.418;2023-04-21T05:51:53;75.43;;;42.33;;
32295;SDS011;18781;51.550;5.418;2023-04-21T05:54:19;75.75;;;43.38;;
32295;SDS011;18781;51.550;5.418;2023-04-21T05:56:45;72.47;;;43.88;;
32295;SDS011;18781;51.550;5.418;2023-04-21T05:59:12;81.93;;;44.63;;
32295;SDS011;18781;51.550;5.418;2023-04-21T06:01:37;80.72;;;45.15;;
32295;SDS011;18781;51.550;5.418;2023-04-21T06:04:03;74.95;;;43.53;;
32295;SDS011;18781;51.550;5.418;2023-04-21T06:06:28;76.63;;;44.20;;
32295;SDS011;18781;51.550;5.418;2023-04-21T06:08:54;76.00;;;43.38;;
32295;SDS011;18781;51.550;5.418;2023-04-21T06:11:21;75.07;;;43.10;;
32295;SDS011;18781;51.550;5.418;2023-04-21T06:13:47;74.40;;;43.15;;
32295;SDS011;18781;51.550;5.418;2023-04-21T06:16:13;74.15;;;43.25;;
32295;SDS011;18781;51.550;5.418;2023-04-21T06:18:39;75.72;;;42.60;;
32295;SDS011;18781;51.550;5.418;2023-04-21T06:21:05;81.32;;;42.38;;
32295;SDS011;18781;51.550;5.418;2023-04-21T06:23:30;81.78;;;45.70;;
32295;SDS011;18781;51.550;5.418;2023-04-21T06:26:04;83.20;;;45.83;;
32295;SDS011;18781;51.550;5.418;2023-04-21T06:28:31;77.63;;;45.40;;
32295;SDS011;18781;51.550;5.418;2023-04-21T06:30:58;78.00;;;43.13;;
32295;SDS011;18781;51.550;5.418;2023-04-21T06:33:25;76.45;;;44.35;;
32295;SDS011;18781;51.550;5.418;2023-04-21T06:35:50;79.57;;;44.55;;
32295;SDS011;18781;51.550;5.418;2023-04-21T06:38:17;76.30;;;44.30;;
32295;SDS011;18781;51.550;5.418;2023-04-21T06:40:42;77.88;;;44.22;;
32295;SDS011;18781;51.550;5.418;2023-04-21T06:43:08;78.60;;;45.30;;
32295;SDS011;18781;51.550;5.418;2023-04-21T06:45:34;76.25;;;43.40;;
32295;SDS011;18781;51.550;5.418;2023-04-21T06:47:59;77.90;;;45.08;;
32295;SDS011;18781;51.550;5.418;2023-04-21T06:50:25;78.70;;;45.80;;
32295;SDS011;18781;51.550;5.418;2023-04-21T06:52:51;73.10;;;43.67;;
32295;SDS011;18781;51.550;5.418;2023-04-21T06:55:16;73.82;;;44.15;;
32295;SDS011;18781;51.550;5.418;2023-04-21T06:57:42;71.97;;;44.03;;
32295;SDS011;18781;51.550;5.418;2023-04-21T07:00:08;75.72;;;44.05;;
32295;SDS011;18781;51.550;5.418;2023-04-21T07:02:34;73.55;;;44.28;;
32295;SDS011;18781;51.550;5.418;2023-04-21T07:04:59;77.60;;;44.05;;
32295;SDS011;18781;51.550;5.418;2023-04-21T07:07:25;77.40;;;45.30;;
32295;SDS011;18781;51.550;5.418;2023-04-21T07:09:51;76.93;;;44.10;;
32295;SDS011;18781;51.550;5.418;2023-04-21T07:12:16;71.47;;;42.88;;
32295;SDS011;18781;51.550;5.418;2023-04-21T07:14:42;73.88;;;44.63;;
32295;SDS011;18781;51.550;5.418;2023-04-21T07:17:07;67.47;;;41.33;;
32295;SDS011;18781;51.550;5.418;2023-04-21T07:19:33;67.35;;;41.45;;
32295;SDS011;18781;51.550;5.418;2023-04-21T07:21:59;68.18;;;41.20;;
32295;SDS011;18781;51.550;5.418;2023-04-21T07:24:24;70.68;;;42.75;;
32295;SDS011;18781;51.550;5.418;2023-04-21T07:26:50;67.70;;;42.53;;
32295;SDS011;18781;51.550;5.418;2023-04-21T07:29:15;62.90;;;40.22;;
32295;SDS011;18781;51.550;5.418;2023-04-21T07:31:41;63.13;;;40.65;;
32295;SDS011;18781;51.550;5.418;2023-04-21T07:34:07;63.88;;;40.53;;
32295;SDS011;18781;51.550;5.418;2023-04-21T07:36:32;65.07;;;38.67;;
32295;SDS011;18781;51.550;5.418;2023-04-21T07:38:58;66.72;;;42.13;;
32295;SDS011;18781;51.550;5.418;2023-04-21T07:41:24;61.88;;;40.45;;
32295;SDS011;18781;51.550;5.418;2023-04-21T07:43:49;63.33;;;40.72;;
32295;SDS011;18781;51.550;5.418;2023-04-21T07:46:15;66.03;;;41.80;;
32295;SDS011;18781;51.550;5.418;2023-04-21T07:48:40;63.88;;;40.85;;
32295;SDS011;18781;51.550;5.418;2023-04-21T07:51:06;64.85;;;41.80;;
32295;SDS011;18781;51.550;5.418;2023-04-21T07:53:32;66.57;;;42.50;;
32295;SDS011;18781;51.550;5.418;2023-04-21T07:55:57;61.08;;;38.53;;
32295;SDS011;18781;51.550;5.418;2023-04-21T07:58:23;61.35;;;37.75;;
32295;SDS011;18781;51.550;5.418;2023-04-21T08:00:48;58.97;;;38.78;;
32295;SDS011;18781;51.550;5.418;2023-04-21T08:03:14;57.65;;;37.08;;
32295;SDS011;18781;51.550;5.418;2023-04-21T08:05:40;49.97;;;35.17;;
32295;SDS011;18781;51.550;5.418;2023-04-21T08:08:05;50.22;;;32.78;;
32295;SDS011;18781;51.550;5.418;2023-04-21T08:10:31;48.90;;;32.92;;
32295;SDS011;18781;51.550;5.418;2023-04-21T08:12:57;45.90;;;30.90;;
32295;SDS011;18781;51.550;5.418;2023-04-21T08:15:23;44.42;;;32.45;;
32295;SDS011;18781;51.550;5.418;2023-04-21T08:17:48;42.33;;;29.30;;
32295;SDS011;18781;51.550;5.418;2023-04-21T08:20:14;43.40;;;29.60;;
32295;SDS011;18781;51.550;5.418;2023-04-21T08:22:40;47.38;;;29.25;;
32295;SDS011;18781;51.550;5.418;2023-04-21T08:25:05;40.13;;;27.33;;
32295;SDS011;18781;51.550;5.418;2023-04-21T08:27:31;41.15;;;26.92;;
32295;SDS011;18781;51.550;5.418;2023-04-21T08:29:57;37.97;;;25.50;;
32295;SDS011;18781;51.550;5.418;2023-04-21T08:32:24;39.22;;;26.60;;
32295;SDS011;18781;51.550;5.418;2023-04-21T08:34:50;39.50;;;26.20;;
32295;SDS011;18781;51.550;5.418;2023-04-21T08:37:18;39.35;;;27.15;;
32295;SDS011;18781;51.550;5.418;2023-04-21T08:39:44;40.63;;;27.35;;
32295;SDS011;18781;51.550;5.418;2023-04-21T08:42:11;37.63;;;26.55;;
32295;SDS011;18781;51.550;5.418;2023-04-21T08:44:39;35.45;;;24.30;;
32295;SDS011;18781;51.550;5.418;2023-04-21T08:47:05;35.08;;;23.73;;
32295;SDS011;18781;51.550;5.418;2023-04-21T08:49:34;35.93;;;24.37;;
32295;SDS011;18781;51.550;5.418;2023-04-21T08:52:01;32.17;;;23.52;;
32295;SDS011;18781;51.550;5.418;2023-04-21T08:54:27;37.33;;;24.52;;
32295;SDS011;18781;51.550;5.418;2023-04-21T08:56:52;32.70;;;24.60;;
32295;SDS011;18781;51.550;5.418;2023-04-21T08:59:18;35.85;;;24.73;;
32295;SDS011;18781;51.550;5.418;2023-04-21T09:02:26;36.63;;;24.92;;
32295;SDS011;18781;51.550;5.418;2023-04-21T09:04:42;34.85;;;25.25;;
32295;SDS011;18781;51.550;5.418;2023-04-21T09:07:12;40.20;;;26.48;;
32295;SDS011;18781;51.550;5.418;2023-04-21T09:09:55;37.83;;;26.33;;
32295;SDS011;18781;51.550;5.418;2023-04-21T09:12:22;36.33;;;25.13;;
32295;SDS011;18781;51.550;5.418;2023-04-21T09:14:47;36.50;;;25.15;;
32295;SDS011;18781;51.550;5.418;2023-04-21T09:17:17;32.30;;;23.90;;
32295;SDS011;18781;51.550;5.418;2023-04-21T09:19:44;33.50;;;24.08;;
32295;SDS011;18781;51.550;5.418;2023-04-21T09:22:16;34.22;;;23.15;;
32295;SDS011;18781;51.550;5.418;2023-04-21T09:24:46;32.78;;;22.73;;
32295;SDS011;18781;51.550;5.418;2023-04-21T09:27:16;35.20;;;24.30;;
32295;SDS011;18781;51.550;5.418;2023-04-21T09:29:45;36.30;;;23.30;;
32295;SDS011;18781;51.550;5.418;2023-04-21T09:32:15;31.42;;;22.52;;
32295;SDS011;18781;51.550;5.418;2023-04-21T09:34:44;30.38;;;22.65;;
32295;SDS011;18781;51.550;5.418;2023-04-21T09:37:11;34.90;;;23.75;;
32295;SDS011;18781;51.550;5.418;2023-04-21T09:39:38;33.38;;;23.52;;
32295;SDS011;18781;51.550;5.418;2023-04-21T09:42:04;32.45;;;23.48;;
32295;SDS011;18781;51.550;5.418;2023-04-21T09:44:29;29.95;;;21.80;;
32295;SDS011;18781;51.550;5.418;2023-04-21T09:46:59;33.47;;;22.92;;
32295;SDS011;18781;51.550;5.418;2023-04-21T09:49:28;28.25;;;21.27;;
32295;SDS011;18781;51.550;5.418;2023-04-21T09:51:59;32.33;;;22.25;;
32295;SDS011;18781;51.550;5.418;2023-04-21T09:54:28;30.85;;;21.77;;
32295;SDS011;18781;51.550;5.418;2023-04-21T09:56:57;29.40;;;21.63;;
32295;SDS011;18781;51.550;5.418;2023-04-21T09:59:31;31.70;;;23.15;;
32295;SDS011;18781;51.550;5.418;2023-04-21T10:02:01;33.42;;;23.15;;
32295;SDS011;18781;51.550;5.418;2023-04-21T10:04:30;29.73;;;21.88;;
32295;SDS011;18781;51.550;5.418;2023-04-21T10:06:57;29.75;;;21.90;;
32295;SDS011;18781;51.550;5.418;2023-04-21T10:09:30;31.73;;;22.58;;
32295;SDS011;18781;51.550;5.418;2023-04-21T10:12:01;29.55;;;21.65;;
32295;SDS011;18781;51.550;5.418;2023-04-21T10:14:28;26.95;;;21.17;;
32295;SDS011;18781;51.550;5.418;2023-04-21T10:17:06;31.80;;;21.80;;
32295;SDS011;18781;51.550;5.418;2023-04-21T10:19:34;30.08;;;22.25;;
32295;SDS011;18781;51.550;5.418;2023-04-21T10:22:06;28.83;;;20.80;;
32295;SDS011;18781;51.550;5.418;2023-04-21T10:24:37;27.90;;;19.45;;
32295;SDS011;18781;51.550;5.418;2023-04-21T10:27:04;27.88;;;19.35;;
32295;SDS011;18781;51.550;5.418;2023-04-21T10:29:32;24.67;;;17.85;;
32295;SDS011;18781;51.550;5.418;2023-04-21T10:31:58;27.92;;;19.88;;
32295;SDS011;18781;51.550;5.418;2023-04-21T10:37:06;27.08;;;18.67;;
32295;SDS011;18781;51.550;5.418;2023-04-21T10:39:36;24.95;;;17.67;;
32295;SDS011;18781;51.550;5.418;2023-04-21T10:44:44;24.45;;;18.10;;
32295;SDS011;18781;51.550;5.418;2023-04-21T10:52:45;24.25;;;16.55;;
32295;SDS011;18781;51.550;5.418;2023-04-21T10:55:12;23.40;;;16.33;;
32295;SDS011;18781;51.550;5.418;2023-04-21T10:57:40;20.20;;;15.50;;
32295;SDS011;18781;51.550;5.418;2023-04-21T11:00:08;25.30;;;18.00;;
32295;SDS011;18781;51.550;5.418;2023-04-21T11:02:35;27.02;;;17.73;;
32295;SDS011;18781;51.550;5.418;2023-04-21T11:05:01;23.05;;;15.73;;
32295;SDS011;18781;51.550;5.418;2023-04-21T11:07:27;22.50;;;15.98;;
32295;SDS011;18781;51.550;5.418;2023-04-21T11:09:56;21.83;;;16.58;;
32295;SDS011;18781;51.550;5.418;2023-04-21T11:12:28;22.23;;;16.40;;
32295;SDS011;18781;51.550;5.418;2023-04-21T11:14:55;22.65;;;16.50;;
32295;SDS011;18781;51.550;5.418;2023-04-21T11:17:21;21.63;;;15.35;;
32295;SDS011;18781;51.550;5.418;2023-04-21T11:19:49;20.55;;;14.65;;
32295;SDS011;18781;51.550;5.418;2023-04-21T11:22:16;24.27;;;14.32;;
32295;SDS011;18781;51.550;5.418;2023-04-21T11:24:44;21.45;;;15.75;;
32295;SDS011;18781;51.550;5.418;2023-04-21T11:27:11;24.73;;;18.00;;
32295;SDS011;18781;51.550;5.418;2023-04-21T11:29:38;24.65;;;18.83;;
32295;SDS011;18781;51.550;5.418;2023-04-21T11:32:07;18.73;;;13.45;;
32295;SDS011;18781;51.550;5.418;2023-04-21T11:34:35;20.38;;;13.15;;
32295;SDS011;18781;51.550;5.418;2023-04-21T11:37:02;16.13;;;12.23;;
32295;SDS011;18781;51.550;5.418;2023-04-21T11:39:27;16.35;;;12.45;;
32295;SDS011;18781;51.550;5.418;2023-04-21T11:41:53;18.48;;;13.52;;
32295;SDS011;18781;51.550;5.418;2023-04-21T11:46:57;17.67;;;13.75;;
32295;SDS011;18781;51.550;5.418;2023-04-21T11:49:23;18.33;;;13.55;;
32295;SDS011;18781;51.550;5.418;2023-04-21T11:51:53;18.85;;;13.82;;
32295;SDS011;18781;51.550;5.418;2023-04-21T11:54:18;19.13;;;15.38;;
32295;SDS011;18781;51.550;5.418;2023-04-21T11:56:46;19.60;;;14.68;;
32295;SDS011;18781;51.550;5.418;2023-04-21T11:59:12;18.58;;;14.88;;
32295;SDS011;18781;51.550;5.418;2023-04-21T12:04:17;18.80;;;16.27;;
32295;SDS011;18781;51.550;5.418;2023-04-21T12:06:43;24.98;;;17.70;;
32295;SDS011;18781;51.550;5.418;2023-04-21T12:09:19;20.08;;;17.40;;
32295;SDS011;18781;51.550;5.418;2023-04-21T12:11:49;25.15;;;17.77;;
32295;SDS011;18781;51.550;5.418;2023-04-21T12:14:20;21.05;;;16.80;;
32295;SDS011;18781;51.550;5.418;2023-04-21T12:16:53;24.05;;;17.88;;
32295;SDS011;18781;51.550;5.418;2023-04-21T12:19:21;19.80;;;15.57;;
32295;SDS011;18781;51.550;5.418;2023-04-21T12:21:51;21.50;;;15.70;;
32295;SDS011;18781;51.550;5.418;2023-04-21T12:24:18;20.92;;;15.73;;
32295;SDS011;18781;51.550;5.418;2023-04-21T12:26:43;21.60;;;16.27;;
32295;SDS011;18781;51.550;5.418;2023-04-21T12:29:09;21.38;;;16.55;;
32295;SDS011;18781;51.550;5.418;2023-04-21T12:31:34;21.52;;;17.30;;
32295;SDS011;18781;51.550;5.418;2023-04-21T12:34:00;24.02;;;18.15;;
32295;SDS011;18781;51.550;5.418;2023-04-21T12:36:25;24.58;;;19.67;;
32295;SDS011;18781;51.550;5.418;2023-04-21T12:38:51;25.92;;;18.42;;
32295;SDS011;18781;51.550;5.418;2023-04-21T12:41:17;21.85;;;17.10;;
32295;SDS011;18781;51.550;5.418;2023-04-21T12:43:44;23.75;;;16.75;;
32295;SDS011;18781;51.550;5.418;2023-04-21T12:46:09;21.17;;;16.33;;
32295;SDS011;18781;51.550;5.418;2023-04-21T12:48:35;26.50;;;18.08;;
32295;SDS011;18781;51.550;5.418;2023-04-21T12:51:01;25.98;;;18.05;;
32295;SDS011;18781;51.550;5.418;2023-04-21T12:53:26;20.73;;;15.30;;
32295;SDS011;18781;51.550;5.418;2023-04-21T12:55:52;20.38;;;15.27;;
32295;SDS011;18781;51.550;5.418;2023-04-21T12:58:17;22.02;;;14.65;;
32295;SDS011;18781;51.550;5.418;2023-04-21T13:00:43;25.33;;;16.42;;
32295;SDS011;18781;51.550;5.418;2023-04-21T13:03:08;21.88;;;16.13;;
32295;SDS011;18781;51.550;5.418;2023-04-21T13:05:34;23.50;;;16.13;;
32295;SDS011;18781;51.550;5.418;2023-04-21T13:07:59;36.33;;;28.10;;
32295;SDS011;18781;51.550;5.418;2023-04-21T13:10:25;40.72;;;31.58;;
32295;SDS011;18781;51.550;5.418;2023-04-21T13:12:51;37.42;;;31.50;;
32295;SDS011;18781;51.550;5.418;2023-04-21T13:15:16;40.20;;;30.67;;
32295;SDS011;18781;51.550;5.418;2023-04-21T13:17:42;31.30;;;24.55;;
32295;SDS011;18781;51.550;5.418;2023-04-21T13:20:08;29.85;;;21.95;;
32295;SDS011;18781;51.550;5.418;2023-04-21T13:22:34;29.15;;;21.42;;
32295;SDS011;18781;51.550;5.418;2023-04-21T13:24:59;26.73;;;20.88;;
32295;SDS011;18781;51.550;5.418;2023-04-21T13:27:25;25.23;;;20.08;;
32295;SDS011;18781;51.550;5.418;2023-04-21T13:29:50;26.27;;;21.98;;
32295;SDS011;18781;51.550;5.418;2023-04-21T13:32:18;28.38;;;21.95;;
32295;SDS011;18781;51.550;5.418;2023-04-21T13:34:44;32.15;;;24.70;;
32295;SDS011;18781;51.550;5.418;2023-04-21T13:37:09;37.80;;;28.27;;
32295;SDS011;18781;51.550;5.418;2023-04-21T13:39:39;34.60;;;27.05;;
32295;SDS011;18781;51.550;5.418;2023-04-21T13:42:05;31.42;;;25.60;;
32295;SDS011;18781;51.550;5.418;2023-04-21T13:44:30;31.85;;;23.05;;
32295;SDS011;18781;51.550;5.418;2023-04-21T13:46:56;28.95;;;23.00;;
32295;SDS011;18781;51.550;5.418;2023-04-21T13:49:21;28.30;;;22.48;;
32295;SDS011;18781;51.550;5.418;2023-04-21T13:51:47;29.23;;;22.17;;
32295;SDS011;18781;51.550;5.418;2023-04-21T13:54:13;28.75;;;21.83;;
32295;SDS011;18781;51.550;5.418;2023-04-21T13:56:38;29.63;;;22.35;;
32295;SDS011;18781;51.550;5.418;2023-04-21T13:59:04;30.27;;;22.42;;
32295;SDS011;18781;51.550;5.418;2023-04-21T14:01:30;32.90;;;22.95;;
32295;SDS011;18781;51.550;5.418;2023-04-21T14:03:56;29.33;;;21.33;;
32295;SDS011;18781;51.550;5.418;2023-04-21T14:06:21;29.38;;;22.83;;
32295;SDS011;18781;51.550;5.418;2023-04-21T14:08:47;39.35;;;28.00;;
32295;SDS011;18781;51.550;5.418;2023-04-21T14:11:13;35.35;;;28.15;;
32295;SDS011;18781;51.550;5.418;2023-04-21T14:13:38;36.15;;;27.48;;
32295;SDS011;18781;51.550;5.418;2023-04-21T14:16:04;33.60;;;27.40;;
32295;SDS011;18781;51.550;5.418;2023-04-21T14:18:31;36.03;;;27.30;;
32295;SDS011;18781;51.550;5.418;2023-04-21T14:20:57;37.90;;;27.98;;
32295;SDS011;18781;51.550;5.418;2023-04-21T14:23:23;38.88;;;29.67;;
32295;SDS011;18781;51.550;5.418;2023-04-21T14:25:48;39.97;;;31.20;;
32295;SDS011;18781;51.550;5.418;2023-04-21T14:28:14;38.05;;;29.58;;
32295;SDS011;18781;51.550;5.418;2023-04-21T14:30:39;40.08;;;28.55;;
32295;SDS011;18781;51.550;5.418;2023-04-21T14:33:06;36.53;;;27.73;;
32295;SDS011;18781;51.550;5.418;2023-04-21T14:35:32;35.42;;;28.15;;